Terminal Aerodrome Forecast
Issued by NWS Sioux Falls, SD

Home | Current Version | Previous Version | Graphics & Text | Print | Product List | Glossary On
Versions: 1 2 3 4 5 6 7 8 9 10 11 12
000
FTUS43 KFSD 202320
TAFFSD
TAF
KFSD 202320Z 2100/2124 11007KT P6SM OVC110
     FM210200 11006KT P6SM VCSH BKN050 OVC080
     FM211200 11008KT P6SM OVC070=

USA.gov is the U.S. government's official web portal to all federal, state and local government web resources and services.